Airfield :
LOGIN :

Register | Disclaimer

   EN    FR    IT 

 










Legend :    VFR   Marginal VFR   IFR   Intensive IFR   Very Intensive IFR
Visi :
Ceiling :
>= 8 km
>= 3000ft
5 to 8 km
1000 to 3000 ft
1500m to 5 km
500 to 1000 ft
800 to 1500m
200 to 500 ft
< 800m
< 200 ft
Symbols :   Thunderstorms  Fog  Heavy snow  Heavy precipitations  Wind > 20 kt
SIGMETs :     Misc.  Thunderstorms  Icing  Turbulence  Mountain Waves  Volcanic Ashes






- Airport Elevation : 297 ft
- IATA code : UIP


LFRQ - Quimper Pluguffan

CURRENT METAR :
  • 101230Z AUTO 20018G31KT 2800 -RA BR BKN010 OVC014 12/10 Q1018 TEMPO 28015G25KT RADZ

EXPIRED METARs :
  • 101200Z AUTO 20015KT 160V230 8000 BKN009 OVC013 12/10 Q1019 TEMPO 28015G25KT 2500 RADZ OVC010
  • 101130Z AUTO 20015G28KT 9999 OVC011 12/10 Q1020 TEMPO 28015G25KT 2500 RADZ
  • 101100Z AUTO 20012KT 160V220 9999 BKN011 OVC017 12/10 Q1021 BECMG 20022G36KT 4000 -RADZ OVC006
  • 101030Z AUTO 19013KT 160V220 9999 OVC011 12/10 Q1021 BECMG 20022G36KT 4000 -RADZ OVC006
  • 101000Z AUTO 19014KT 9999 BKN012 OVC019 11/10 Q1021 BECMG 20015G25KT 4000 -RADZ OVC006

TAF AMD TAF LFRQ
Valid from the 10 at 12:00 until the 11 at 12:00 UTC


101231Z 1012/1112 19014KT 9999 BKN011 OVC019
TEMPO 1012/1015 28015G25KT 2500 RADZ OVC005
BECMG 1015/1018 2500 RA OVC005 SCT015CB
BECMG 1019/1021 30013G23KT 9999 NSW SCT040
BECMG 1100/1103 26006KT
TEMPO 1106/1112 24017G28KT 3000 SHRAGS SCT012CB BKN025
PROB40
TEMPO 1108/1112 TSRA BKN012CB



MET'MAP, your aeronautical weather chart ! - Copyright ORBIFLY December 2007 - Disclaimer

ORBIFLY MET'MAP TEAM :

Programming & Development : Alexandra Zaïnal
Concept & original design : Baudouin d'Aumeries
Assistance for programming : Marc-Olivier Méhu
Technical & hardware support : Manuel Goepfert

Contact : metmap@orbifly.com




SOURCES & CREDITS :

   NOAA